Latest Weather Observations for Creal Reef

IDQ60801

Issued at 11:35 pm EST Thursday 30 October 2014 (issued every 30 minutes, with the page automatically refreshed every 10 minutes)

About weather observations | Map of weather stations | Latest weather observations for QLD | Other Formats
Station Details ID: 200736 Name: CREAL REEF Lat: -20.53 Lon: 150.38 Height: 1.7 m
Data from the previous 72 hours. | See also: Recent months for locations in Queensland
Date/Time
EST
Temp
°C
App
Temp
°C
Dew
Point
Rel
Hum
%
Delta-T
°C
Wind Press
QNH
hPa
Press
MSL
hPa
Rain
since 9 am
mm
Dir
 
Spd
km/h
Gust
km/h
Spd
kts
Gust
kts
30/11:30pm 24.3 - - - - ENE 24 28 13 15 1014.4 - -
30/11:20pm 24.3 - - - - ENE 24 26 13 14 1014.6 1014.5 -
30/11:00pm 24.2 - - - - ENE 24 28 13 15 1014.7 - -
30/10:30pm 24.3 - - - - ENE 24 30 13 16 1014.9 - -
30/10:20pm 24.3 - - - - ENE 24 - 13 - - 1014.8 -
30/10:00pm 24.3 - - - - ENE 24 28 13 15 1014.9 - -
30/09:30pm 24.4 - - - - ENE 28 30 15 16 1014.6 - -
30/09:20pm 24.3 - - - - ENE 28 - 15 - - 1014.4 -
30/09:00pm 24.4 - - - - ENE 28 32 15 17 1014.4 - -
30/08:30pm 24.4 - - - - ENE 30 32 16 17 1014.3 - -
30/08:20pm 24.4 - - - - ENE 30 - 16 - - 1014.1 -
30/08:00pm 24.4 - - - - ENE 28 32 15 17 1014.1 - -
30/07:30pm 24.4 - - - - ENE 28 32 15 17 1014.0 - -
30/07:20pm 24.4 - - - - ENE 28 - 15 - - 1014.0 -
30/07:00pm 24.4 - - - - ENE 26 30 14 16 1014.1 - -
30/06:30pm 24.5 - - - - ENE 26 30 14 16 1013.8 - -
30/06:20pm 24.5 - - - - ENE 24 - 13 - - 1013.6 -
30/06:00pm 24.5 - - - - ENE 24 28 13 15 1013.6 - -
30/05:30pm 24.6 - - - - E 24 26 13 14 1013.2 - -
30/05:20pm 24.6 - - - - E 22 - 12 - - 1013.1 -
30/05:00pm 24.7 - - - - E 22 24 12 13 1013.1 - -
30/04:30pm 24.6 - - - - ENE 24 30 13 16 1012.8 - -
30/04:20pm 24.7 - - - - ENE 24 - 13 - - 1012.6 -
30/04:00pm 24.6 - - - - ENE 24 26 13 14 1012.6 - -
30/03:30pm 24.7 - - - - E 20 24 11 13 1012.7 - -
30/03:20pm 24.8 - - - - E 19 - 10 - - 1012.7 -
30/03:00pm 24.7 - - - - ENE 20 22 11 12 1012.9 - -
30/02:30pm 24.7 - - - - E 20 24 11 13 1012.8 - -
30/02:20pm 24.7 - - - - E 20 - 11 - - 1012.8 -
30/02:00pm 24.7 - - - - E 20 22 11 12 1013.0 - -
30/01:30pm 24.7 - - - - E 19 20 10 11 1013.2 - -
30/01:20pm 24.7 - - - - E 17 - 9 - - 1013.2 -
30/01:00pm 24.7 - - - - E 19 20 10 11 1013.5 - -
30/12:30pm 24.7 - - - - E 13 17 7 9 1014.0 - -
30/12:20pm 24.7 - - - - E 15 - 8 - - 1014.1 -
30/12:00pm 24.5 - - - - E 20 24 11 13 1014.4 - -
30/11:30am 24.7 - - - - E 17 20 9 11 1014.8 - -
30/11:20am 24.7 - - - - E 17 - 9 - - 1014.8 -
30/11:00am 24.7 - - - - E 15 19 8 10 1015.0 - -
30/10:30am 24.7 - - - - ENE 20 24 11 13 1015.0 - -
30/10:20am 24.6 - - - - ENE 20 - 11 - - 1014.9 -
30/10:00am 24.6 - - - - ENE 17 19 9 10 1015.4 - -
30/09:30am 24.8 - - - - ENE 11 15 6 8 1015.8 - -
30/09:20am 24.8 - - - - E 13 - 7 - - 1015.6 -
30/09:00am 25.0 - - - - ESE 7 11 4 6 1016.1 - -
30/08:30am 25.0 - - - - S 9 11 5 6 1016.5 - -
30/08:20am 24.8 - - - - S 9 - 5 - - 1016.5 -
30/08:00am 25.2 - - - - SSW 9 11 5 6 1016.6 - -
30/07:30am 25.2 - - - - SW 9 11 5 6 1016.7 - -
30/07:20am 25.1 - - - - SW 9 - 5 - - 1016.6 -
30/07:00am 25.2 - - - - SSW 9 9 5 5 1016.5 - -
30/06:30am 25.3 - - - - CALM 0 6 0 3 1016.1 - -
30/06:20am 24.5 - - - - CALM 0 - 0 - - 1015.7 -
30/06:00am 24.1 - - - - ENE 0 0 0 0 1015.4 - -
30/05:30am 24.1 - - - - N 6 7 3 4 1014.9 - -
30/05:20am 24.1 - - - - NNE 7 - 4 - - 1014.6 -
30/05:00am 24.1 - - - - NNE 11 13 6 7 1014.4 - -
30/04:30am 24.2 - - - - NNE 15 17 8 9 1013.8 - -
30/04:20am 24.2 - - - - NNE 13 - 7 - - 1013.5 -
30/04:00am 24.2 - - - - NNE 17 20 9 11 1013.3 - -
30/03:30am 24.2 - - - - NNE 20 24 11 13 1012.9 - -
30/03:20am 24.2 - - - - NNE 17 - 9 - - 1012.9 -
30/03:00am 24.2 - - - - NNE 19 22 10 12 1012.9 - -
30/02:30am 24.2 - - - - N 19 24 10 13 1012.9 - -
30/02:20am 24.2 - - - - N 20 - 11 - - 1012.6 -
30/02:00am 24.2 - - - - N 20 24 11 13 1012.5 - -
30/01:30am 24.1 - - - - N 26 30 14 16 1012.3 - -
30/01:20am 24.1 - - - - N 26 - 14 - - 1012.4 -
30/01:00am 24.1 - - - - NNE 26 30 14 16 1012.6 - -
30/12:30am 24.1 - - - - N 24 32 13 17 1013.3 - -
30/12:20am 24.1 - - - - N 30 - 16 - - 1012.9 -
30/12:00am 24.2 - - - - N 26 30 14 16 1013.2 - -
 
Date/Time
EST
Temp
°C
App
Temp
°C
Dew
Point
Rel
Hum
%
Delta-T
°C
Wind Press
QNH
hPa
Press
MSL
hPa
Rain
since 9 am
mm
Dir
 
Spd
km/h
Gust
km/h
Spd
kts
Gust
kts
29/11:30pm 24.2 - - - - N 24 28 13 15 1013.7 - -
29/11:20pm 24.2 - - - - NNE 24 - 13 - - 1013.7 -
29/11:00pm 24.2 - - - - NNE 24 28 13 15 1013.9 - -
29/10:30pm 24.3 - - - - NNE 28 30 15 16 1014.2 - -
29/10:20pm 24.3 - - - - NNE 26 - 14 - - 1014.0 -
29/10:00pm 24.2 - - - - N 24 26 13 14 1014.3 - -
29/09:30pm 24.1 - - - - NNE 24 26 13 14 1014.3 - -
29/09:20pm 24.2 - - - - NNE 24 - 13 - - 1014.3 -
29/09:00pm 24.1 - - - - NNE 22 24 12 13 1014.2 - -
29/08:30pm 24.2 - - - - NNE 24 28 13 15 1013.9 - -
29/08:20pm 24.1 - - - - NNE 24 - 13 - - 1013.7 -
29/08:00pm 24.1 - - - - NNE 22 26 12 14 1013.9 - -
29/07:30pm 24.2 - - - - NNE 24 28 13 15 1013.6 - -
29/07:20pm 24.2 - - - - NNE 24 - 13 - - 1013.5 -
29/07:00pm 24.2 - - - - NNE 22 24 12 13 1013.4 - -
29/06:30pm 24.3 - - - - NNE 20 22 11 12 1013.4 - -
29/06:20pm 24.2 - - - - NNE 19 - 10 - - 1013.2 -
29/06:00pm 24.3 - - - - NNE 19 20 10 11 1013.2 - -
29/05:30pm 24.2 - - - - NNE 20 22 11 12 1012.9 - -
29/05:20pm 24.3 - - - - N 19 - 10 - - 1012.7 -
29/05:00pm 24.3 - - - - NNE 17 20 9 11 1012.8 - -
29/04:30pm 24.3 - - - - N 17 20 9 11 1012.7 - -
29/04:20pm 24.3 - - - - N 19 - 10 - - 1012.5 -
29/04:00pm 24.3 - - - - N 17 19 9 10 1012.5 - -
29/03:30pm 24.3 - - - - N 19 20 10 11 1012.5 - -
29/03:20pm 24.3 - - - - N 17 - 9 - - 1012.4 -
29/03:00pm 24.3 - - - - N 19 20 10 11 1012.6 - -
29/02:30pm 24.2 - - - - N 19 20 10 11 1012.7 - -
29/02:20pm 24.3 - - - - N 20 - 11 - - 1012.7 -
29/02:00pm 24.3 - - - - N 19 20 10 11 1013.0 - -
29/01:30pm 24.3 - - - - N 17 20 9 11 1013.2 - -
29/01:20pm 24.3 - - - - N 19 - 10 - - 1013.1 -
29/01:00pm 24.3 - - - - N 19 22 10 12 1013.4 - -
29/12:30pm 24.2 - - - - N 19 20 10 11 1013.5 - -
29/12:20pm 24.2 - - - - N 19 - 10 - - 1013.5 -
29/12:00pm 24.2 - - - - N 17 20 9 11 1013.8 - -
29/11:30am 24.1 - - - - N 17 20 9 11 1014.0 - -
29/11:20am 24.1 - - - - N 17 - 9 - - 1014.1 -
29/11:00am 24.1 - - - - N 17 20 9 11 1014.4 - -
29/10:30am 24.1 - - - - NNE 17 20 9 11 1014.7 - -
29/10:20am 24.1 - - - - N 19 - 10 - - 1014.7 -
29/10:00am 24.1 - - - - N 19 20 10 11 1014.8 - -
29/09:30am 24.0 - - - - NNE 17 19 9 10 1014.9 - -
29/09:20am 24.1 - - - - N 17 - 9 - - 1014.9 -
29/09:00am 24.0 - - - - N 17 20 9 11 1014.9 - -
29/08:30am 24.0 - - - - NNE 13 17 7 9 1015.0 - -
29/08:20am 24.0 - - - - NNE 13 - 7 - - 1014.8 -
29/08:00am 23.9 - - - - N 13 17 7 9 1014.8 - -
29/07:30am 23.9 - - - - N 15 19 8 10 1014.4 - -
29/07:20am 23.9 - - - - N 13 - 7 - - 1014.4 -
29/07:00am 23.9 - - - - N 9 11 5 6 1014.3 - -
29/06:30am 23.9 - - - - N 7 11 4 6 1014.2 - -
29/06:20am 24.0 - - - - N 9 - 5 - - 1014.0 -
29/06:00am 23.8 - - - - N 15 17 8 9 1013.5 - -
29/05:30am 23.7 - - - - NNW 9 15 5 8 1013.4 - -
29/05:20am 23.7 - - - - NNW 9 - 5 - - 1013.2 -
29/05:00am 23.6 - - - - NW 7 9 4 5 1013.3 - -
29/04:30am 23.7 - - - - NW 9 15 5 8 1013.4 - -
29/04:20am 23.7 - - - - NW 9 - 5 - - 1013.0 -
29/04:00am 23.8 - - - - WNW 9 11 5 6 1013.3 - -
29/03:30am 23.8 - - - - WNW 11 13 6 7 1013.4 - -
29/03:20am 23.9 - - - - WNW 11 - 6 - - 1013.4 -
29/03:00am 23.9 - - - - WNW 11 13 6 7 1013.6 - -
29/02:30am 23.8 - - - - NNW 15 19 8 10 1012.9 - -
29/02:20am 23.8 - - - - N 17 - 9 - - 1012.7 -
29/02:00am 23.9 - - - - N 19 22 10 12 1012.6 - -
29/01:30am 23.9 - - - - N 22 26 12 14 1012.6 - -
29/01:20am 23.9 - - - - N 22 - 12 - - 1012.6 -
29/01:00am 24.0 - - - - N 24 28 13 15 1012.8 - -
29/12:30am 24.1 - - - - N 28 32 15 17 1013.1 - -
29/12:20am 24.0 - - - - N 28 - 15 - - 1012.9 -
29/12:00am 24.1 - - - - N 30 32 16 17 1013.1 - -
 
Date/Time
EST
Temp
°C
App
Temp
°C
Dew
Point
Rel
Hum
%
Delta-T
°C
Wind Press
QNH
hPa
Press
MSL
hPa
Rain
since 9 am
mm
Dir
 
Spd
km/h
Gust
km/h
Spd
kts
Gust
kts
28/11:30pm 24.1 - - - - N 26 28 14 15 1013.5 - -
28/11:20pm 24.1 - - - - N 24 - 13 - - 1013.5 -
28/11:00pm 24.1 - - - - N 24 28 13 15 1013.6 - -
28/10:30pm 24.1 - - - - N 26 30 14 16 1013.7 - -
28/10:20pm 24.1 - - - - N 24 - 13 - - 1013.7 -
28/10:00pm 24.1 - - - - N 22 24 12 13 1013.9 - -
28/09:30pm 24.0 - - - - N 24 28 13 15 1013.7 - -
28/09:20pm 24.1 - - - - N 22 - 12 - - 1013.5 -
28/09:00pm 24.1 - - - - N 22 24 12 13 1013.7 - -
28/08:30pm 24.1 - - - - N 24 26 13 14 1013.7 - -
28/08:20pm 24.1 - - - - N 22 - 12 - - 1013.6 -
28/08:00pm 24.1 - - - - N 20 24 11 13 1013.6 - -
28/07:30pm 24.1 - - - - N 22 24 12 13 1013.5 - -
28/07:20pm 24.1 - - - - N 20 - 11 - - 1013.3 -
28/07:00pm 24.2 - - - - N 22 26 12 14 1013.2 - -
28/06:30pm 24.2 - - - - N 20 24 11 13 1013.0 - -
28/06:20pm 24.2 - - - - N 22 - 12 - - 1012.8 -
28/06:00pm 24.2 - - - - N 22 26 12 14 1012.8 - -
28/05:30pm 24.2 - - - - N 22 26 12 14 1012.6 - -
28/05:20pm 24.2 - - - - N 22 - 12 - - 1012.5 -
28/05:00pm 24.2 - - - - N 22 24 12 13 1012.4 - -
28/04:30pm 24.2 - - - - N 22 24 12 13 1012.4 - -
28/04:20pm 24.2 - - - - N 20 - 11 - - 1012.3 -
28/04:00pm 24.4 - - - - N 20 24 11 13 1012.5 - -
28/03:30pm 24.4 - - - - N 19 24 10 13 1012.6 - -
28/03:20pm 24.3 - - - - N 17 - 9 - - 1012.6 -
28/03:00pm 24.4 - - - - NNW 19 20 10 11 1012.8 - -
28/02:30pm 24.5 - - - - NNW 17 19 9 10 1013.0 - -
28/02:20pm 24.4 - - - - NNW 19 - 10 - - 1012.9 -
28/02:00pm 24.2 - - - - NNW 19 20 10 11 1013.1 - -
28/01:30pm 24.2 - - - - NNW 19 22 10 12 1013.3 - -
28/01:20pm 24.3 - - - - NNW 20 - 11 - - 1013.3 -
28/01:00pm 24.1 - - - - NNW 22 24 12 13 1013.4 - -
28/12:30pm 24.2 - - - - NNW 20 24 11 13 1013.8 - -
28/12:20pm 24.1 - - - - NNW 20 - 11 - - 1013.8 -
28/12:00pm 24.1 - - - - NNW 22 26 12 14 1014.0 - -
28/11:30am 24.1 - - - - N 20 24 11 13 1014.4 - -
28/11:20am 24.2 - - - - N 20 - 11 - - 1014.4 -
28/11:00am 24.1 - - - - N 20 24 11 13 1014.7 - -
28/10:30am 24.1 - - - - N 22 26 12 14 1014.7 - -
28/10:20am 24.0 - - - - N 22 - 12 - - 1014.7 -
28/10:00am 24.0 - - - - N 26 28 14 15 1014.8 - -
28/09:30am 23.9 - - - - N 20 24 11 13 1015.0 - -
28/09:20am 23.9 - - - - N 20 - 11 - - 1014.8 -
28/09:00am 23.9 - - - - N 22 24 12 13 1014.9 - -
28/08:30am 23.9 - - - - N 20 24 11 13 1015.2 - -
28/08:20am 23.8 - - - - N 22 - 12 - - 1014.8 -
28/08:00am 23.8 - - - - N 19 22 10 12 1015.0 - -
28/07:30am 23.7 - - - - N 20 28 11 15 1014.4 - -
28/07:20am 23.7 - - - - N 20 - 11 - - 1014.6 -
28/07:00am 23.6 - - - - N 15 19 8 10 1014.9 - -
28/06:30am 23.6 - - - - N 13 17 7 9 1015.0 - -
28/06:20am 23.6 - - - - N 15 - 8 - - 1014.8 -
28/06:00am 23.5 - - - - N 17 19 9 10 1014.1 - -
28/05:30am 23.5 - - - - N 17 20 9 11 1014.0 - -
28/05:20am 23.5 - - - - N 19 - 10 - - 1013.9 -
28/05:00am 23.5 - - - - N 17 20 9 11 1014.1 - -
28/04:30am 23.4 - - - - N 19 20 10 11 1013.8 - -
28/04:20am 23.5 - - - - N 17 - 9 - - 1013.8 -
28/04:00am 23.4 - - - - N 22 26 12 14 1013.4 - -
28/03:30am 23.4 - - - - N 24 26 13 14 1013.1 - -
28/03:20am 23.4 - - - - N 24 - 13 - - 1013.1 -
28/03:00am 23.3 - - - - N 24 26 13 14 1013.0 - -
28/02:30am 23.4 - - - - N 26 30 14 16 1013.0 - -
28/02:20am 23.4 - - - - N 26 - 14 - - 1012.8 -
28/02:00am 23.5 - - - - N 24 28 13 15 1013.0 - -
28/01:30am 23.5 - - - - N 24 28 13 15 1013.3 - -
28/01:20am 23.5 - - - - N 24 - 13 - - 1013.2 -
28/01:00am 23.5 - - - - N 24 26 13 14 1013.5 - -
28/12:30am 23.5 - - - - N 22 24 12 13 1013.9 - -
28/12:20am 23.5 - - - - N 20 - 11 - - 1014.0 -
28/12:00am 23.6 - - - - N 19 22 10 12 1014.3 - -

Other Formats:

Comma delimited format used in spreadsheet applications
http://www.bom.gov.au/fwo/IDQ60801/IDQ60801.94371.axf

JavaScript Object Notation format (JSON) in row-major order
http://www.bom.gov.au/fwo/IDQ60801/IDQ60801.94371.json